Puerto Banus, Marbella

>

This is an optional block (switch it off / on) in the settings - file ($SITE['banners'] = false;)

You can display ads, any other important text or photo’s using text / html or PHP code.

You can place one or more at the top and or bottom and it can all be different for content / size .



Meteosat more information blitzortung!


Radar lluvias  rain snow radar


Visita nuestra red de sitios de meteo:

Documentation for the template used

MeteoibericaRed estaciones Meteorologicas

MeteoclimaticRed estaciones Meteorologicas



Sin Advertencias climatologicas .En este momento tenemos Nivel Verde.    No hay Alarmas

Informes METAR proximidad

   
EBAW - Antwerp
Actualización: 17-01-2019 21:50
Light Showers, Luvia, Nieve, Parcialmente Nublado  
Light Showers, Luvia, Nieve, Parcialmente Nublado  
   Viento: West 13 km/h
Viento: West 13 km/h
Temperatura: 2°C
Térmica: -2°C
Punto de rocío: 1°C
Humedad: 93%
Baromètro: 1013 hPa
Nublado: Parcialmente Nublado
Visibilidad: More than 10 km
detalles de la nube: Nubes dispersas 700 ft,
Parcialmente Nublado 1500 ft
EBAW 172050Z 26007KT 9999 -SHRASN FEW007 SCT015 02/01 Q1013 TEMPO 3000 SHRAGS SCT008 BKN014CB
EBLG - Liège
Actualización: 17-01-2019 21:50
Parcialmente Nublado  
Parcialmente Nublado  
   Viento: West 20.4 km/h
Viento: West 20.4 km/h
Temperatura: 0°C
Térmica: -5°C
Punto de rocío: -1°C
Humedad: 93%
Baromètro: 1013 hPa
Nublado: Parcialmente Nublado
Visibilidad: More than 10 km
detalles de la nube: Parcialmente Nublado 600 ft,
Parcialmente Nublado 1500 ft
EBLG 172050Z 26011KT 9999 SCT006 SCT015 00/M01 Q1013 TEMPO 30015G25KT 3500 SHRAGSSN BKN006
EBCV - Mons/Bergen
Actualización: 17-01-2019 21:55
Parcialmente nublado  
Parcialmente nublado  
   Viento: West 9.3 km/h
Viento: West 9.3 km/h
Temperatura: 1°C
Térmica: -2°C
Punto de rocío: 0°C
Humedad: 93%
Baromètro: 1016 hPa
Nublado: Parcialmente nublado
Visibilidad: More than 10 km
detalles de la nube: Parcialmente Nublado 500 ft,
Parcialmente nublado 5800 ft
EBCV 172055Z AUTO 28005KT 9999 SCT005/// BKN058/// 01/00 Q1016 YLO
EHBK - Maastricht
Actualización: 17-01-2019 21:55
Parcialmente nublado  
Parcialmente nublado  
   Viento: WSW 13 km/h
Viento: WSW 13 km/h
Temperatura: 1°C
Térmica: -3°C
Punto de rocío: 0°C
Humedad: 93%
Baromètro: 1012 hPa
Nublado: Parcialmente nublado
Visibilidad: More than 10 km
detalles de la nube: Nubes dispersas 400 ft,
Parcialmente Nublado 500 ft,
Parcialmente nublado 600 ft
EHBK 172055Z AUTO 25007KT 220V290 9999 FEW004 SCT005 BKN006 01/00 Q1012 BECMG SCT025
ELLX - Luxemburg
Actualización: 17-01-2019 21:50
Light Showers, Nieve, Parcialmente nublado  
Light Showers, Nieve, Parcialmente nublado  
   Viento: West 24.1 km/h
Viento: West 24.1 km/h
Temperatura: 0°C
Térmica: -6°C
Punto de rocío: -1°C
Humedad: 93%
Baromètro: 1012 hPa
Nublado: Parcialmente nublado
Visibilidad: More than 10 km
detalles de la nube: Parcialmente Nublado 1200 ft,
Parcialmente nublado 1500 ft
ELLX 172050Z 28013KT 9999 -SHSN SCT012 BKN015 M00/M01 Q1012 NOSIG
EBOS - Oostende
Actualización: 17-01-2019 21:50
Parcialmente Nublado  
Parcialmente Nublado  
   Viento: NW 35.2 km/h
Viento: NW 35.2 km/h
Temperatura: 5°C
Térmica: -1°C
Punto de rocío: 1°C
Humedad: 76%
Baromètro: 1015 hPa
Nublado: Parcialmente Nublado
Visibilidad: More than 10 km
detalles de la nube: Nubes dispersas 2200 ft,
Parcialmente Nublado 3500 ft
EBOS 172050Z 31019KT 9999 FEW022 SCT035 05/01 Q1015 NOSIG

Guión original por  Saratoga-weather.org Adaptado para la plantilla por  Weerstation Leuven

Usted encontrará nuestra información del tiempo también en:

Weather Underground

Iberian Peninsula Weather Network